createdAt,value
2017-01-18T00:00:51.106Z,1039.8
2017-01-18T00:01:54.074Z,1039.8
2017-01-18T00:02:57.042Z,1039.8
2017-01-18T00:04:00.518Z,1039.8
2017-01-18T00:05:03.490Z,1039.8
2017-01-18T00:06:06.458Z,1039.9
2017-01-18T00:07:09.932Z,1039.9
2017-01-18T00:08:12.902Z,1039.9
2017-01-18T00:09:15.877Z,1040
2017-01-18T00:10:18.844Z,1040
2017-01-18T00:11:22.321Z,1040
2017-01-18T00:12:25.290Z,1040
2017-01-18T00:13:28.262Z,1040
2017-01-18T00:14:31.229Z,1040
2017-01-18T00:15:34.705Z,1040
2017-01-18T00:17:40.581Z,1039.9
2017-01-18T00:18:44.056Z,1040
2017-01-18T00:19:47.028Z,1040
2017-01-18T00:20:50.001Z,1040
2017-01-18T00:21:52.980Z,1040
2017-01-18T00:22:56.460Z,1040
2017-01-18T00:23:59.431Z,1040
2017-01-18T00:25:02.408Z,1040
2017-01-18T00:26:05.549Z,1040
2017-01-18T00:27:08.516Z,1040
2017-01-18T00:28:11.990Z,1040.1
2017-01-18T00:29:14.964Z,1040
2017-01-18T00:30:17.956Z,1040.1
2017-01-18T00:31:20.923Z,1040
2017-01-18T00:32:24.396Z,1040.1
2017-01-18T00:33:27.368Z,1040.1
2017-01-18T00:34:30.339Z,1040
2017-01-18T00:35:33.308Z,1040
2017-01-18T00:36:36.778Z,1040
2017-01-18T00:37:39.747Z,1040
2017-01-18T00:38:42.718Z,1040
2017-01-18T00:39:46.194Z,1040
2017-01-18T00:40:49.166Z,1040
2017-01-18T00:41:52.134Z,1040
2017-01-18T00:42:55.106Z,1040
2017-01-18T00:43:58.581Z,1040
2017-01-18T00:45:01.554Z,1040.1
2017-01-18T00:46:04.526Z,1040.1
2017-01-18T00:47:07.497Z,1040.1
2017-01-18T00:48:10.971Z,1040.1
2017-01-18T00:49:13.941Z,1040.1
2017-01-18T00:50:16.913Z,1040.1
2017-01-18T00:51:19.881Z,1040
2017-01-18T00:53:26.264Z,1040
2017-01-18T00:54:29.235Z,1040.1
2017-01-18T00:55:32.711Z,1040
2017-01-18T00:56:35.683Z,1040
2017-01-18T00:57:38.655Z,1040
2017-01-18T00:58:41.622Z,1040
2017-01-18T00:59:45.098Z,1039.9
2017-01-18T01:00:48.072Z,1039.8
2017-01-18T01:01:51.046Z,1039.9
2017-01-18T01:02:54.019Z,1039.9
2017-01-18T01:03:57.497Z,1039.9
2017-01-18T01:05:00.470Z,1039.9
2017-01-18T01:06:03.442Z,1039.9
2017-01-18T01:07:08.426Z,1039.9
2017-01-18T01:09:12.797Z,1039.9
2017-01-18T01:10:15.769Z,1039.9
2017-01-18T01:11:19.250Z,1040
2017-01-18T01:12:22.220Z,1040
2017-01-18T01:13:25.196Z,1040
2017-01-18T01:14:28.668Z,1040
2017-01-18T01:15:31.643Z,1040
2017-01-18T01:16:34.615Z,1040
2017-01-18T01:17:37.591Z,1040
2017-01-18T01:18:41.064Z,1040
2017-01-18T01:19:44.035Z,1040
2017-01-18T01:20:47.011Z,1040
2017-01-18T01:21:49.982Z,1040
2017-01-18T01:22:53.467Z,1040
2017-01-18T01:23:56.434Z,1039.9
2017-01-18T01:24:59.405Z,1039.9
2017-01-18T01:26:02.405Z,1039.9
2017-01-18T01:27:05.882Z,1040
2017-01-18T01:28:08.857Z,1040
2017-01-18T01:29:11.826Z,1040
2017-01-18T01:30:14.796Z,1040
2017-01-18T01:31:18.268Z,1040
2017-01-18T01:32:21.241Z,1040
2017-01-18T01:33:24.209Z,1040
2017-01-18T01:34:27.177Z,1040
2017-01-18T01:35:30.649Z,1040.1
2017-01-18T01:36:33.620Z,1040.1
2017-01-18T01:37:36.595Z,1040.1
2017-01-18T01:38:40.067Z,1040.1
2017-01-18T01:39:43.039Z,1040.1
2017-01-18T01:40:46.007Z,1040
2017-01-18T01:41:48.975Z,1040.1
2017-01-18T01:42:52.161Z,1040.1
2017-01-18T01:43:55.129Z,1040.1
2017-01-18T01:44:58.600Z,1040.1
2017-01-18T01:46:01.576Z,1040.1
2017-01-18T01:47:04.548Z,1040.1
2017-01-18T01:48:07.520Z,1040.1
2017-01-18T01:49:10.993Z,1040.2
2017-01-18T01:50:13.963Z,1040.2
2017-01-18T01:51:16.935Z,1040.2
2017-01-18T01:52:20.406Z,1040.2
2017-01-18T01:53:23.377Z,1040.2
2017-01-18T01:54:26.350Z,1040.2
2017-01-18T01:55:29.319Z,1040.2
2017-01-18T01:56:32.792Z,1040.2
2017-01-18T01:57:35.762Z,1040.2
2017-01-18T01:58:38.737Z,1040.2
2017-01-18T01:59:41.705Z,1040.1
2017-01-18T02:00:45.185Z,1040.2
2017-01-18T02:01:48.152Z,1040.2
2017-01-18T02:02:51.120Z,1040.2
2017-01-18T02:03:54.097Z,1040.1
2017-01-18T02:04:57.568Z,1040.2
2017-01-18T02:06:00.536Z,1040.2
2017-01-18T02:08:06.770Z,1040.2
2017-01-18T02:09:09.601Z,1040.2
2017-01-18T02:10:13.071Z,1040.2
2017-01-18T02:11:16.044Z,1040.2
2017-01-18T02:12:19.015Z,1040.2
2017-01-18T02:13:22.486Z,1040.2
2017-01-18T02:14:25.494Z,1040.2
2017-01-18T02:15:28.463Z,1040.2
2017-01-18T02:16:31.435Z,1040.2
2017-01-18T02:17:34.906Z,1040.2
2017-01-18T02:18:37.880Z,1040.2
2017-01-18T02:19:40.850Z,1040.2
2017-01-18T02:20:43.823Z,1040.2
2017-01-18T02:21:47.324Z,1040.1
2017-01-18T02:22:50.297Z,1040.1
2017-01-18T02:23:53.273Z,1040.1
2017-01-18T02:24:56.245Z,1040.1
2017-01-18T02:25:59.721Z,1040.1
2017-01-18T02:27:02.688Z,1040.1
2017-01-18T02:28:05.656Z,1040.1
2017-01-18T02:29:08.635Z,1040.1
2017-01-18T02:30:12.108Z,1040.1
2017-01-18T02:31:15.085Z,1040.1
2017-01-18T02:32:18.063Z,1040.1
2017-01-18T02:33:21.031Z,1040.1
2017-01-18T02:34:24.505Z,1040.1
2017-01-18T02:35:27.478Z,1040.1
2017-01-18T02:36:30.446Z,1040.1
2017-01-18T02:37:33.419Z,1040.1
2017-01-18T02:39:39.952Z,1040.1
2017-01-18T02:40:42.918Z,1040.1
2017-01-18T02:41:45.887Z,1040
2017-01-18T02:42:48.862Z,1040.1
2017-01-18T02:43:52.337Z,1040.1
2017-01-18T02:44:55.305Z,1040.1
2017-01-18T02:45:58.280Z,1040.1
2017-01-18T02:47:01.756Z,1040.1
2017-01-18T02:48:04.728Z,1040.1
2017-01-18T02:49:07.695Z,1040
2017-01-18T02:50:10.664Z,1040
2017-01-18T02:51:14.138Z,1040
2017-01-18T02:52:17.109Z,1040
2017-01-18T02:53:20.085Z,1040
2017-01-18T02:54:23.054Z,1040
2017-01-18T02:55:26.529Z,1040
2017-01-18T02:56:29.498Z,1040.1
2017-01-18T02:57:32.474Z,1040.1
2017-01-18T02:58:35.445Z,1040.1
2017-01-18T02:59:38.920Z,1040
2017-01-18T03:00:41.919Z,1040
2017-01-18T03:01:44.889Z,1040
2017-01-18T03:02:47.861Z,1040
2017-01-18T03:03:51.340Z,1040.1
2017-01-18T03:04:54.311Z,1040
2017-01-18T03:05:57.284Z,1040
2017-01-18T03:07:00.256Z,1040
2017-01-18T03:08:03.746Z,1040
2017-01-18T03:09:06.721Z,1040
2017-01-18T03:11:13.102Z,1039.9
2017-01-18T03:12:16.077Z,1039.9
2017-01-18T03:13:19.049Z,1039.9
2017-01-18T03:14:22.022Z,1039.9
2017-01-18T03:15:25.501Z,1039.9
2017-01-18T03:16:28.475Z,1039.9
2017-01-18T03:17:31.448Z,1039.9
2017-01-18T03:18:34.605Z,1039.9
2017-01-18T03:19:37.582Z,1039.9
2017-01-18T03:20:41.057Z,1039.9
2017-01-18T03:21:44.033Z,1039.9
2017-01-18T03:22:47.003Z,1039.8
2017-01-18T03:23:49.976Z,1039.8
2017-01-18T03:24:53.451Z,1039.8
2017-01-18T03:25:56.424Z,1039.8
2017-01-18T03:26:59.423Z,1039.8
2017-01-18T03:28:02.392Z,1039.8
2017-01-18T03:29:05.867Z,1039.8
2017-01-18T03:31:11.774Z,1039.7
2017-01-18T03:32:14.750Z,1039.8
2017-01-18T03:33:18.225Z,1039.7
2017-01-18T03:34:21.193Z,1039.7
2017-01-18T03:35:24.166Z,1039.8
2017-01-18T03:36:27.136Z,1039.8
2017-01-18T03:37:30.612Z,1039.9
2017-01-18T03:38:33.588Z,1039.8
2017-01-18T03:39:36.560Z,1039.9
2017-01-18T03:40:39.532Z,1039.9
2017-01-18T03:41:43.007Z,1039.9
2017-01-18T03:42:45.975Z,1039.9
2017-01-18T03:43:48.947Z,1039.9
2017-01-18T03:44:52.418Z,1039.9
2017-01-18T03:45:55.389Z,1039.9
2017-01-18T03:46:58.362Z,1039.9
2017-01-18T03:48:01.334Z,1039.9
2017-01-18T03:49:04.812Z,1039.9
2017-01-18T03:50:07.780Z,1039.9
2017-01-18T03:51:10.757Z,1039.9
2017-01-18T03:52:13.729Z,1039.9
2017-01-18T03:53:17.223Z,1039.9
2017-01-18T03:54:20.199Z,1039.9
2017-01-18T03:55:23.171Z,1039.9
2017-01-18T03:56:26.144Z,1039.8
2017-01-18T03:57:29.619Z,1040
2017-01-18T03:58:32.590Z,1039.9
2017-01-18T03:59:35.567Z,1039.9
2017-01-18T04:00:38.543Z,1039.9
2017-01-18T04:01:42.017Z,1039.9
2017-01-18T04:02:44.985Z,1039.9
2017-01-18T04:03:47.954Z,1039.8
2017-01-18T04:04:50.930Z,1039.8
2017-01-18T04:05:54.403Z,1039.8
2017-01-18T04:06:57.377Z,1039.8
2017-01-18T04:08:00.349Z,1039.8
2017-01-18T04:09:03.319Z,1039.9
2017-01-18T04:10:06.795Z,1039.9
2017-01-18T04:11:09.763Z,1039.9
2017-01-18T04:12:12.739Z,1039.8
2017-01-18T04:13:16.211Z,1039.8
2017-01-18T04:14:19.181Z,1039.8
2017-01-18T04:15:22.153Z,1039.8
2017-01-18T04:16:25.126Z,1039.9
2017-01-18T04:17:28.603Z,1039.9
2017-01-18T04:18:31.576Z,1039.9
2017-01-18T04:19:34.548Z,1039.8
2017-01-18T04:20:37.519Z,1039.8
2017-01-18T04:21:40.998Z,1039.8
2017-01-18T04:22:43.970Z,1039.7
2017-01-18T04:23:46.939Z,1039.7
2017-01-18T04:26:56.224Z,1039.7
2017-01-18T04:27:59.195Z,1039.7
2017-01-18T04:29:02.670Z,1039.8
2017-01-18T04:30:05.646Z,1039.7
2017-01-18T04:31:08.617Z,1039.7
2017-01-18T04:32:11.586Z,1039.6
2017-01-18T04:33:15.060Z,1039.7
2017-01-18T04:34:18.032Z,1039.8
2017-01-18T04:35:21.004Z,1039.7
2017-01-18T04:36:23.976Z,1039.7
2017-01-18T04:37:27.455Z,1039.8
2017-01-18T04:38:30.427Z,1039.7
2017-01-18T04:39:33.399Z,1039.7
2017-01-18T04:40:36.366Z,1039.7
2017-01-18T04:41:39.845Z,1039.6
2017-01-18T04:42:42.818Z,1039.7
2017-01-18T04:43:45.794Z,1039.7
2017-01-18T04:44:48.761Z,1039.7
2017-01-18T04:45:52.237Z,1039.6
2017-01-18T04:46:55.215Z,1039.6
2017-01-18T04:47:58.184Z,1039.6
2017-01-18T04:49:01.156Z,1039.6
2017-01-18T04:50:04.631Z,1039.6
2017-01-18T04:51:07.603Z,1039.6
2017-01-18T04:52:10.575Z,1039.6
2017-01-18T04:53:14.049Z,1039.6
2017-01-18T04:54:17.021Z,1039.6
2017-01-18T04:55:19.994Z,1039.6
2017-01-18T04:56:22.973Z,1039.6
2017-01-18T04:57:26.444Z,1039.6
2017-01-18T04:58:29.417Z,1039.6
2017-01-18T04:59:32.388Z,1039.7
2017-01-18T05:00:35.357Z,1039.7
2017-01-18T05:01:38.835Z,1039.7
2017-01-18T05:02:41.807Z,1039.7
2017-01-18T05:03:44.781Z,1039.7
2017-01-18T05:04:47.787Z,1039.7
2017-01-18T05:05:51.263Z,1039.8
2017-01-18T05:06:54.236Z,1039.7
2017-01-18T05:07:57.205Z,1039.8
2017-01-18T05:09:00.347Z,1039.7
2017-01-18T05:10:03.323Z,1039.7
2017-01-18T05:11:06.298Z,1039.7
2017-01-18T05:13:12.677Z,1039.7
2017-01-18T05:14:15.649Z,1039.8
2017-01-18T05:15:19.123Z,1039.8
2017-01-18T05:16:22.096Z,1039.8
2017-01-18T05:17:25.068Z,1039.9
2017-01-18T05:18:28.035Z,1039.8
2017-01-18T05:19:31.510Z,1039.8
2017-01-18T05:20:34.502Z,1039.8
2017-01-18T05:21:37.474Z,1039.8
2017-01-18T05:22:40.446Z,1039.8
2017-01-18T05:23:43.922Z,1039.8
2017-01-18T05:24:46.893Z,1039.8
2017-01-18T05:25:49.865Z,1039.8
2017-01-18T05:26:52.865Z,1039.9
2017-01-18T05:27:56.337Z,1039.9
2017-01-18T05:28:59.312Z,1039.9
2017-01-18T05:30:02.284Z,1039.9
2017-01-18T05:31:05.284Z,1039.9
2017-01-18T05:32:08.759Z,1039.9
2017-01-18T05:33:11.732Z,1039.9
2017-01-18T05:34:14.708Z,1040
2017-01-18T05:38:26.921Z,1040
2017-01-18T05:39:30.393Z,1040
2017-01-18T05:40:33.369Z,1040
2017-01-18T05:41:36.341Z,1040.1
2017-01-18T05:42:39.313Z,1040.1
2017-01-18T05:43:42.812Z,1040.1
2017-01-18T05:45:48.688Z,1040.1
2017-01-18T05:46:52.168Z,1040.1
2017-01-18T05:47:55.141Z,1040.1
2017-01-18T05:48:58.113Z,1040.2
2017-01-18T05:50:01.085Z,1040.2
2017-01-18T05:51:04.564Z,1040.2
2017-01-18T05:55:16.759Z,1040.4
2017-01-18T05:57:23.142Z,1040.4
2017-01-18T05:58:26.113Z,1040.4
2017-01-18T05:59:29.090Z,1040.4
2017-01-18T06:00:32.061Z,1040.4
2017-01-18T06:01:35.537Z,1040.4
2017-01-18T06:02:38.514Z,1040.4
2017-01-18T06:03:41.484Z,1040.4
2017-01-18T06:04:44.959Z,1040.4
2017-01-18T06:05:47.929Z,1040.4
2017-01-18T06:06:50.901Z,1040.4
2017-01-18T06:07:53.878Z,1040.5
2017-01-18T06:08:57.350Z,1040.6
2017-01-18T06:10:00.321Z,1040.5
2017-01-18T06:11:03.294Z,1040.5
2017-01-18T06:12:06.262Z,1040.5
2017-01-18T06:13:09.733Z,1040.6
2017-01-18T06:14:12.709Z,1040.6
2017-01-18T06:15:15.682Z,1040.6
2017-01-18T06:16:18.654Z,1040.6
2017-01-18T06:17:22.129Z,1040.5
2017-01-18T06:18:25.101Z,1040.5
2017-01-18T06:19:28.074Z,1040.4
2017-01-18T06:20:31.043Z,1040.4
2017-01-18T06:21:34.525Z,1040.4
2017-01-18T06:22:37.496Z,1040.2
2017-01-18T06:23:40.465Z,1040.2
2017-01-18T06:24:43.940Z,1040.2
2017-01-18T06:25:46.921Z,1040.2
2017-01-18T06:26:49.927Z,1040.2
2017-01-18T06:27:52.895Z,1040.1
2017-01-18T06:28:55.862Z,1040.2
2017-01-18T06:29:59.341Z,1040.2
2017-01-18T06:31:02.316Z,1040.2
2017-01-18T06:32:05.287Z,1040.4
2017-01-18T06:33:08.757Z,1040.4
2017-01-18T06:34:11.729Z,1040.4
2017-01-18T06:35:14.701Z,1040.5
2017-01-18T06:36:17.667Z,1040.5
2017-01-18T06:37:21.149Z,1040.6
2017-01-18T06:38:24.117Z,1040.6
2017-01-18T06:39:27.085Z,1040.6
2017-01-18T06:40:30.052Z,1040.6
2017-01-18T06:41:33.555Z,1040.6
2017-01-18T06:42:36.533Z,1040.7
2017-01-18T06:43:39.505Z,1040.6
2017-01-18T06:44:42.472Z,1040.7
2017-01-18T06:45:45.946Z,1040.7
2017-01-18T06:46:48.921Z,1040.7
2017-01-18T06:47:51.893Z,1040.7
2017-01-18T06:48:54.863Z,1040.7
2017-01-18T06:49:58.342Z,1040.7
2017-01-18T06:51:01.314Z,1040.7
2017-01-18T06:52:04.292Z,1040.7
2017-01-18T06:53:07.259Z,1040.6
2017-01-18T06:54:10.733Z,1040.7
2017-01-18T06:55:13.705Z,1040.7
2017-01-18T06:56:16.675Z,1040.7
2017-01-18T06:57:19.645Z,1040.7
2017-01-18T06:58:23.121Z,1040.7
2017-01-18T06:59:26.092Z,1040.7
2017-01-18T07:00:29.062Z,1040.7
2017-01-18T07:01:32.536Z,1040.8
2017-01-18T07:02:35.509Z,1040.7
2017-01-18T07:03:38.479Z,1040.7
2017-01-18T07:04:41.446Z,1040.8
2017-01-18T07:05:44.927Z,1040.8
2017-01-18T07:06:47.900Z,1040.8
2017-01-18T07:07:50.871Z,1040.9
2017-01-18T07:08:53.845Z,1040.9
2017-01-18T07:09:57.321Z,1040.9
2017-01-18T07:11:00.300Z,1040.9
2017-01-18T07:12:03.276Z,1040.9
2017-01-18T07:13:06.247Z,1040.9
2017-01-18T07:15:12.650Z,1040.9
2017-01-18T07:16:15.618Z,1040.9
2017-01-18T07:17:19.093Z,1040.9
2017-01-18T07:18:22.067Z,1040.9
2017-01-18T07:19:25.039Z,1040.9
2017-01-18T07:20:28.013Z,1040.9
2017-01-18T07:21:31.492Z,1040.9
2017-01-18T07:22:34.463Z,1040.9
2017-01-18T07:23:37.442Z,1040.9
2017-01-18T07:24:40.413Z,1040.9
2017-01-18T07:25:43.887Z,1041
2017-01-18T07:26:46.863Z,1041
2017-01-18T07:27:49.837Z,1041
2017-01-18T07:28:52.805Z,1040.9
2017-01-18T07:29:55.941Z,1041
2017-01-18T07:30:59.411Z,1041
2017-01-18T07:32:02.379Z,1041
2017-01-18T07:33:05.353Z,1041
2017-01-18T07:34:08.325Z,1041
2017-01-18T07:35:11.803Z,1041
2017-01-18T07:36:14.771Z,1041
2017-01-18T07:37:17.749Z,1041
2017-01-18T07:38:20.885Z,1041.1
2017-01-18T07:39:23.855Z,1041
2017-01-18T07:40:27.334Z,1041
2017-01-18T07:41:30.305Z,1041
2017-01-18T07:42:33.273Z,1041
2017-01-18T07:43:36.239Z,1041
2017-01-18T07:44:39.719Z,1041
2017-01-18T07:45:42.689Z,1041.1
2017-01-18T07:46:45.667Z,1041.1
2017-01-18T07:47:48.639Z,1041.1
2017-01-18T07:48:52.114Z,1041.1
2017-01-18T07:49:55.088Z,1041.1
2017-01-18T07:50:58.059Z,1041.1
2017-01-18T07:52:01.030Z,1041.1
2017-01-18T07:53:04.504Z,1041.1
2017-01-18T07:54:07.475Z,1041.1
2017-01-18T07:55:10.442Z,1041.1
2017-01-18T07:56:13.414Z,1041.1
2017-01-18T07:57:16.888Z,1041.2
2017-01-18T07:58:19.859Z,1041.1
2017-01-18T07:59:22.830Z,1041.1
2017-01-18T08:00:26.304Z,1041.1
2017-01-18T08:02:32.191Z,1041.1
2017-01-18T08:03:35.167Z,1041.1
2017-01-18T08:04:38.645Z,1041.1
2017-01-18T08:05:41.615Z,1041.1
2017-01-18T08:06:44.586Z,1041.1
2017-01-18T08:07:47.713Z,1041.1
2017-01-18T08:08:50.680Z,1041.1
2017-01-18T08:09:54.151Z,1041
2017-01-18T08:10:57.118Z,1041
2017-01-18T08:12:00.088Z,1041
2017-01-18T08:13:03.056Z,1041.1
2017-01-18T08:14:06.530Z,1041
2017-01-18T08:15:09.501Z,1041
2017-01-18T08:16:12.472Z,1041
2017-01-18T08:17:15.958Z,1041.1
2017-01-18T08:18:18.930Z,1041.1
2017-01-18T08:19:21.900Z,1041.1
2017-01-18T08:20:24.872Z,1041.1
2017-01-18T08:21:28.350Z,1041.2
2017-01-18T08:22:31.318Z,1041.2
2017-01-18T08:24:37.195Z,1041.2
2017-01-18T08:25:40.668Z,1041.2
2017-01-18T08:26:43.636Z,1041.2
2017-01-18T08:27:46.607Z,1041.2
2017-01-18T08:28:50.078Z,1041.2
2017-01-18T08:29:53.048Z,1041.2
2017-01-18T08:30:56.021Z,1041.2
2017-01-18T08:31:58.998Z,1041.2
2017-01-18T08:33:02.473Z,1041.2
2017-01-18T08:34:05.443Z,1041.2
2017-01-18T08:35:08.438Z,1041.2
2017-01-18T08:36:11.410Z,1041.2
2017-01-18T08:37:14.880Z,1041.2
2017-01-18T08:38:17.851Z,1041.2
2017-01-18T08:39:20.821Z,1041.2
2017-01-18T08:40:23.793Z,1041.2
2017-01-18T08:41:27.267Z,1041.2
2017-01-18T08:42:30.234Z,1041.3
2017-01-18T08:43:33.205Z,1041.2
2017-01-18T08:44:36.675Z,1041.2
2017-01-18T08:45:39.646Z,1041.2
2017-01-18T08:46:42.617Z,1041.2
2017-01-18T08:47:45.592Z,1041.2
2017-01-18T08:48:49.066Z,1041.2
2017-01-18T08:49:52.033Z,1041.2
2017-01-18T08:50:55.005Z,1041.3
2017-01-18T08:51:57.975Z,1041.2
2017-01-18T08:53:01.449Z,1041.2
2017-01-18T08:54:04.421Z,1041.3
2017-01-18T08:55:07.391Z,1041.3
2017-01-18T08:56:10.362Z,1041.2
2017-01-18T08:57:13.842Z,1041.2
2017-01-18T08:58:16.833Z,1041.3
2017-01-18T08:59:19.807Z,1041.3
2017-01-18T09:00:22.774Z,1041.3
2017-01-18T09:01:26.248Z,1041.3
2017-01-18T09:02:29.222Z,1041.4
2017-01-18T09:03:32.194Z,1041.3
2017-01-18T09:04:35.678Z,1041.3
2017-01-18T09:05:38.651Z,1041.3
2017-01-18T09:06:41.629Z,1041.4
2017-01-18T09:08:48.010Z,1041.4
2017-01-18T09:09:50.982Z,1041.5
2017-01-18T09:10:53.953Z,1041.3
2017-01-18T09:11:57.451Z,1041.4
2017-01-18T09:13:00.422Z,1041.4
2017-01-18T09:14:03.590Z,1041.5
2017-01-18T09:15:06.564Z,1041.5
2017-01-18T09:16:09.535Z,1041.5
2017-01-18T09:17:12.507Z,1041.5
2017-01-18T09:18:15.985Z,1041.5
2017-01-18T09:19:18.960Z,1041.5
2017-01-18T09:20:21.935Z,1041.5
2017-01-18T09:21:25.409Z,1041.5
2017-01-18T09:22:28.383Z,1041.6
2017-01-18T09:23:31.355Z,1041.5
2017-01-18T09:24:34.326Z,1041.5
2017-01-18T09:25:37.800Z,1041.6
2017-01-18T09:26:40.775Z,1041.5
2017-01-18T09:27:43.742Z,1041.6
2017-01-18T09:28:46.718Z,1041.6
2017-01-18T09:29:50.188Z,1041.5
2017-01-18T09:30:53.158Z,1041.5
2017-01-18T09:31:56.129Z,1041.5
2017-01-18T09:34:02.511Z,1041.5
2017-01-18T09:35:05.481Z,1041.5
2017-01-18T09:36:08.954Z,1041.5
2017-01-18T09:37:11.926Z,1041.5
2017-01-18T09:38:14.893Z,1041.5
2017-01-18T09:39:17.867Z,1041.5
2017-01-18T09:40:21.341Z,1041.5
2017-01-18T09:41:24.318Z,1041.5
2017-01-18T09:42:27.290Z,1041.4
2017-01-18T09:43:30.258Z,1041.4
2017-01-18T09:44:33.732Z,1041.4
2017-01-18T09:45:36.707Z,1041.4
2017-01-18T09:46:39.677Z,1041.5
2017-01-18T09:47:43.147Z,1041.5
2017-01-18T09:48:46.115Z,1041.4
2017-01-18T09:49:49.082Z,1041.5
2017-01-18T09:50:52.053Z,1041.4
2017-01-18T09:51:55.526Z,1041.5
2017-01-18T09:52:58.501Z,1041.5
2017-01-18T09:54:01.473Z,1041.4
2017-01-18T09:55:04.954Z,1041.5
2017-01-18T09:56:07.925Z,1041.4
2017-01-18T09:57:10.901Z,1041.4
2017-01-18T09:58:13.875Z,1041.4
2017-01-18T09:59:17.352Z,1041.4
2017-01-18T10:00:20.321Z,1041.4
2017-01-18T10:01:23.291Z,1041.4
2017-01-18T10:02:26.258Z,1041.4
2017-01-18T10:03:29.737Z,1041.4
2017-01-18T10:04:32.712Z,1041.5
2017-01-18T10:05:35.682Z,1041.5
2017-01-18T10:06:39.157Z,1041.5
2017-01-18T10:07:42.126Z,1041.6
2017-01-18T10:08:45.097Z,1041.5
2017-01-18T10:09:48.065Z,1041.5
2017-01-18T10:10:51.570Z,1041.5
2017-01-18T10:11:54.543Z,1041.5
2017-01-18T10:12:57.510Z,1041.5
2017-01-18T10:14:00.478Z,1041.4
2017-01-18T10:15:03.983Z,1041.4
2017-01-18T10:16:06.954Z,1041.5
2017-01-18T10:17:09.924Z,1041.5
2017-01-18T10:18:13.095Z,1041.4
2017-01-18T10:19:16.064Z,1041.4
2017-01-18T10:20:19.542Z,1041.3
2017-01-18T10:21:22.509Z,1041.3
2017-01-18T10:22:25.485Z,1041.4
2017-01-18T10:23:28.455Z,1041.3
2017-01-18T10:24:31.926Z,1041.3
2017-01-18T10:25:34.898Z,1041.3
2017-01-18T10:26:37.871Z,1041.3
2017-01-18T10:27:41.349Z,1041.3
2017-01-18T10:28:44.319Z,1041.3
2017-01-18T10:29:47.287Z,1041.3
2017-01-18T10:30:50.266Z,1041.2
2017-01-18T10:31:53.741Z,1041.3
2017-01-18T10:32:56.711Z,1041.3
2017-01-18T10:33:59.682Z,1041.3
2017-01-18T10:35:02.649Z,1041.3
2017-01-18T10:36:06.123Z,1041.4
2017-01-18T10:37:09.093Z,1041.3
2017-01-18T10:38:12.064Z,1041.3
2017-01-18T10:39:15.544Z,1041.3
2017-01-18T10:40:18.517Z,1041.3
2017-01-18T10:41:21.488Z,1041.3
2017-01-18T10:42:24.456Z,1041.3
2017-01-18T10:44:30.836Z,1041.2
2017-01-18T10:45:33.811Z,1041.2
2017-01-18T10:46:37.281Z,1041.2
2017-01-18T10:47:40.252Z,1041.2
2017-01-18T10:48:43.219Z,1041.2
2017-01-18T10:49:46.187Z,1041.2
2017-01-18T10:50:49.676Z,1041.2
2017-01-18T10:51:52.648Z,1041.2
2017-01-18T10:52:55.618Z,1041.2
2017-01-18T10:53:59.101Z,1041.2
2017-01-18T10:55:02.071Z,1041.2
2017-01-18T10:56:05.041Z,1041.2
2017-01-18T10:57:08.013Z,1041.2
2017-01-18T10:58:11.491Z,1041.2
2017-01-18T10:59:14.463Z,1041.1
2017-01-18T11:00:17.433Z,1041.1
2017-01-18T11:01:20.408Z,1041.1
2017-01-18T11:02:23.883Z,1041.1
2017-01-18T11:03:26.853Z,1041.1
2017-01-18T11:04:29.824Z,1041.1
2017-01-18T11:05:33.302Z,1041.1
2017-01-18T11:06:36.269Z,1041.1
2017-01-18T11:07:39.235Z,1041.1
2017-01-18T11:08:42.202Z,1041.1
2017-01-18T11:09:45.676Z,1041
2017-01-18T11:10:48.643Z,1041.1
2017-01-18T11:11:51.630Z,1041
2017-01-18T11:12:55.104Z,1041
2017-01-18T11:13:58.076Z,1041.1
2017-01-18T11:15:01.042Z,1041
2017-01-18T11:16:04.014Z,1041
2017-01-18T11:17:07.491Z,1041
2017-01-18T11:18:10.462Z,1041
2017-01-18T11:19:13.436Z,1041
2017-01-18T11:20:16.403Z,1041
2017-01-18T11:21:19.878Z,1040.9
2017-01-18T11:22:22.849Z,1041
2017-01-18T11:23:25.992Z,1041
2017-01-18T11:24:28.959Z,1040.9
2017-01-18T11:25:32.433Z,1040.9
2017-01-18T11:26:35.404Z,1040.9
2017-01-18T11:27:38.370Z,1040.9
2017-01-18T11:28:41.343Z,1040.9
2017-01-18T11:30:47.722Z,1040.9
2017-01-18T11:31:50.689Z,1040.9
2017-01-18T11:32:54.167Z,1040.9
2017-01-18T11:33:57.144Z,1041
2017-01-18T11:35:00.117Z,1040.9
2017-01-18T11:36:03.086Z,1041
2017-01-18T11:37:06.561Z,1041
2017-01-18T11:38:09.532Z,1040.9
2017-01-18T11:39:12.503Z,1040.9
2017-01-18T11:40:15.984Z,1041
2017-01-18T11:41:18.956Z,1040.9
2017-01-18T11:42:21.926Z,1040.9
2017-01-18T11:43:24.905Z,1040.9
2017-01-18T11:44:28.375Z,1040.9
2017-01-18T11:45:31.342Z,1040.9
2017-01-18T11:46:34.313Z,1040.9
2017-01-18T11:47:37.468Z,1041
2017-01-18T11:48:40.436Z,1040.9
2017-01-18T11:49:43.912Z,1041
2017-01-18T11:50:46.884Z,1041
2017-01-18T11:51:49.851Z,1041
2017-01-18T11:52:53.325Z,1041
2017-01-18T11:53:56.292Z,1041
2017-01-18T11:54:59.263Z,1041
2017-01-18T11:56:02.236Z,1040.9
2017-01-18T11:57:05.708Z,1040.9
2017-01-18T11:58:08.682Z,1040.9
2017-01-18T11:59:11.653Z,1040.9
2017-01-18T12:00:15.124Z,1040.9
2017-01-18T12:01:18.095Z,1040.9
2017-01-18T12:02:21.065Z,1040.8
2017-01-18T12:03:24.032Z,1040.9
2017-01-18T12:04:27.506Z,1040.9
2017-01-18T12:05:30.474Z,1040.9
2017-01-18T12:06:33.441Z,1040.8
2017-01-18T12:07:36.914Z,1040.8
2017-01-18T12:08:39.889Z,1040.8
2017-01-18T12:09:42.860Z,1040.8
2017-01-18T12:10:45.835Z,1040.8
2017-01-18T12:11:49.308Z,1040.8
2017-01-18T12:12:52.278Z,1040.8
2017-01-18T12:13:55.246Z,1040.8
2017-01-18T12:14:58.728Z,1040.8
2017-01-18T12:16:01.699Z,1040.7
2017-01-18T12:17:04.678Z,1040.8
2017-01-18T12:18:07.648Z,1040.7
2017-01-18T12:19:11.122Z,1040.7
2017-01-18T12:20:14.093Z,1040.7
2017-01-18T12:21:17.068Z,1040.7
2017-01-18T12:22:20.538Z,1040.7
2017-01-18T12:23:23.513Z,1040.6
2017-01-18T12:24:26.653Z,1040.7
2017-01-18T12:25:29.623Z,1040.7
2017-01-18T12:26:32.594Z,1040.7
2017-01-18T12:27:36.072Z,1040.7
2017-01-18T12:28:39.040Z,1040.7
2017-01-18T12:29:42.009Z,1040.7
2017-01-18T12:30:45.488Z,1040.7
2017-01-18T12:31:48.459Z,1040.7
2017-01-18T12:32:51.429Z,1040.6
2017-01-18T12:33:54.400Z,1040.6
2017-01-18T12:34:57.882Z,1040.6
2017-01-18T12:36:00.857Z,1040.6
2017-01-18T12:37:04.002Z,1040.6
2017-01-18T12:38:06.979Z,1040.6
2017-01-18T12:39:09.950Z,1040.6
2017-01-18T12:40:13.424Z,1040.7
2017-01-18T12:41:16.395Z,1040.7
2017-01-18T12:42:19.377Z,1040.7
2017-01-18T12:43:22.847Z,1040.6
2017-01-18T12:44:25.822Z,1040.7
2017-01-18T12:45:28.788Z,1040.7
2017-01-18T12:46:31.760Z,1040.7
2017-01-18T12:47:35.230Z,1040.7
2017-01-18T12:48:38.196Z,1040.6
2017-01-18T12:49:41.167Z,1040.7
2017-01-18T12:50:44.638Z,1040.7
2017-01-18T12:51:47.611Z,1040.7
2017-01-18T12:52:50.583Z,1040.6
2017-01-18T12:53:53.552Z,1040.7
2017-01-18T12:54:57.027Z,1040.6
2017-01-18T12:55:59.998Z,1040.6
2017-01-18T12:57:02.969Z,1040.6
2017-01-18T12:58:06.446Z,1040.6
2017-01-18T12:59:09.421Z,1040.6
2017-01-18T13:02:18.707Z,1040.6
2017-01-18T13:03:21.678Z,1040.6
2017-01-18T13:04:24.653Z,1040.6
2017-01-18T13:05:28.130Z,1040.7
2017-01-18T13:06:31.101Z,1040.6
2017-01-18T13:07:34.072Z,1040.7
2017-01-18T13:08:37.550Z,1040.6
2017-01-18T13:09:40.521Z,1040.6
2017-01-18T13:10:43.496Z,1040.6
2017-01-18T13:11:46.469Z,1040.7
2017-01-18T13:12:49.948Z,1040.6
2017-01-18T13:13:52.915Z,1040.7
2017-01-18T13:14:55.886Z,1040.7
2017-01-18T13:15:59.388Z,1040.6
2017-01-18T13:17:02.361Z,1040.7
2017-01-18T13:18:05.329Z,1040.6
2017-01-18T13:19:08.300Z,1040.6
2017-01-18T13:20:11.778Z,1040.6
2017-01-18T13:21:14.748Z,1040.6
2017-01-18T13:22:17.719Z,1040.6
2017-01-18T13:23:20.690Z,1040.6
2017-01-18T13:24:24.165Z,1040.6
2017-01-18T13:25:27.135Z,1040.6
2017-01-18T13:26:30.106Z,1040.6
2017-01-18T13:27:33.253Z,1040.7
2017-01-18T13:28:36.723Z,1040.6
2017-01-18T13:29:39.694Z,1040.7
2017-01-18T13:30:42.674Z,1040.6
2017-01-18T13:31:45.647Z,1040.7
2017-01-18T13:32:49.122Z,1040.7
2017-01-18T13:33:52.092Z,1040.7
2017-01-18T13:34:55.063Z,1040.7
2017-01-18T13:35:58.035Z,1040.7
2017-01-18T13:37:01.512Z,1040.7
2017-01-18T13:38:04.483Z,1040.7
2017-01-18T13:39:07.462Z,1040.7
2017-01-18T13:40:10.963Z,1040.7
2017-01-18T13:41:13.932Z,1040.7
2017-01-18T13:42:16.901Z,1040.6
2017-01-18T13:44:23.281Z,1040.7
2017-01-18T13:45:26.255Z,1040.7